Página principal
METAR-TAF:

METAR-TAF

Aeroportos :

Ushuaia, Argentina

Aeroporto Internacional de Ushuaia - Malvinas Argentinas

latitude: 54-48S, longitude: 068-19W, altura: 16 m

Observação actual do tempo

O boletim foi feito há 1 hora e 14 minutos, às 08:00 UTC
Vento calmo
Temperatura 5°C
Humidade 81%
Pressão 1017 hPa
Visibilidade 10 km ou mais
sem nuvens abaixo de 1500 metros e sem cumulonimbus

METAR: SAWH 260800Z 00000KT CAVOK 05/02 Q1017

Hora: 06:14 (09:14 UTC)

Previsão

O boletim foi feito há 4 horas e 14 minutos, às 05:00 UTC
Previsão válida de 26 às 06 UTC a 27 às 06 UTC
Vento 5 kt com direcção variável
Visibilidade 10 km ou mais
sem nuvens abaixo de 1500 metros e sem cumulonimbus

TAF: SAWH 260500Z 2606/2706 VRB05KT CAVOK TX12/2619Z TN02/2612Z

Observações e previsões do tempo de mais de 4000 aeroportos (mensagens METAR e TAF).

As estações disponíveis são os pontos amarelos e vermelhos sobre o mapa.

Mova o rato sobre o mapa para ver o nome da estação.

Depois clique no ponto para visualizar as observações e previsões meteorológicas.

Para alterar o mapa : clique nos botões verdes com uma cruz preta para aumentar o zoom; no botão verde com uma pitada de zoom; ou nas setas verdes para mapas adjacentes.


METAR-TAF: